sensor_id;sensor_type;location;lat;lon;timestamp;pressure;altitude;pressure_sealevel;temperature;humidity
79540;BME280;68991;52.122;5.406;2023-08-08T00:02:11;101555.38;;;20.46;69.19
79540;BME280;68991;52.122;5.406;2023-08-08T00:04:37;101553.63;;;20.45;69.15
79540;BME280;68991;52.122;5.406;2023-08-08T00:07:04;101540.97;;;20.44;68.96
79540;BME280;68991;52.122;5.406;2023-08-08T00:09:30;101551.88;;;20.44;69.25
79540;BME280;68991;52.122;5.406;2023-08-08T00:11:57;101552.91;;;20.43;69.26
79540;BME280;68991;52.122;5.406;2023-08-08T00:14:25;101552.91;;;20.43;69.31
79540;BME280;68991;52.122;5.406;2023-08-08T00:16:51;101550.16;;;20.43;69.25
79540;BME280;68991;52.122;5.406;2023-08-08T00:19:17;101551.16;;;20.42;69.36
79540;BME280;68991;52.122;5.406;2023-08-08T00:21:44;101545.81;;;20.41;69.10
79540;BME280;68991;52.122;5.406;2023-08-08T00:24:11;101539.50;;;20.40;69.16
79540;BME280;68991;52.122;5.406;2023-08-08T00:26:37;101544.09;;;20.40;69.11
79540;BME280;68991;52.122;5.406;2023-08-08T00:29:04;101545.94;;;20.39;69.30
79540;BME280;68991;52.122;5.406;2023-08-08T00:31:30;101543.22;;;20.39;69.33
79540;BME280;68991;52.122;5.406;2023-08-08T00:33:57;101539.59;;;20.39;68.90
79540;BME280;68991;52.122;5.406;2023-08-08T00:36:23;101535.13;;;20.38;69.37
79540;BME280;68991;52.122;5.406;2023-08-08T00:38:50;101533.41;;;20.37;69.04
79540;BME280;68991;52.122;5.406;2023-08-08T00:41:16;101528.78;;;20.37;68.95
79540;BME280;68991;52.122;5.406;2023-08-08T00:43:43;101528.94;;;20.35;69.27
79540;BME280;68991;52.122;5.406;2023-08-08T00:46:10;101538.00;;;20.36;69.17
79540;BME280;68991;52.122;5.406;2023-08-08T00:48:37;101530.78;;;20.35;69.24
79540;BME280;68991;52.122;5.406;2023-08-08T00:51:04;101528.06;;;20.35;69.05
79540;BME280;68991;52.122;5.406;2023-08-08T00:53:31;101523.56;;;20.34;69.08
79540;BME280;68991;52.122;5.406;2023-08-08T00:55:58;101523.56;;;20.34;69.00
79540;BME280;68991;52.122;5.406;2023-08-08T00:58:25;101521.84;;;20.33;69.39
79540;BME280;68991;52.122;5.406;2023-08-08T01:00:52;101524.59;;;20.33;68.99
79540;BME280;68991;52.122;5.406;2023-08-08T01:03:21;101518.25;;;20.32;69.11
79540;BME280;68991;52.122;5.406;2023-08-08T01:06:00;101525.56;;;20.32;69.11
79540;BME280;68991;52.122;5.406;2023-08-08T01:08:35;101512.91;;;20.31;69.40
79540;BME280;68991;52.122;5.406;2023-08-08T01:11:05;101517.50;;;20.30;69.12
79540;BME280;68991;52.122;5.406;2023-08-08T01:13:32;101520.22;;;20.30;69.25
79540;BME280;68991;52.122;5.406;2023-08-08T01:15:59;101524.81;;;20.30;69.16
79540;BME280;68991;52.122;5.406;2023-08-08T01:18:27;101523.97;;;20.29;69.07
79540;BME280;68991;52.122;5.406;2023-08-08T01:20:54;101532.16;;;20.29;69.45
79540;BME280;68991;52.122;5.406;2023-08-08T01:23:36;101526.81;;;20.28;69.29
79540;BME280;68991;52.122;5.406;2023-08-08T01:26:07;101518.63;;;20.28;69.24
79540;BME280;68991;52.122;5.406;2023-08-08T01:28:34;101509.53;;;20.27;69.02
79540;BME280;68991;52.122;5.406;2023-08-08T01:31:01;101515.88;;;20.28;69.07
79540;BME280;68991;52.122;5.406;2023-08-08T01:33:28;101516.81;;;20.27;69.25
79540;BME280;68991;52.122;5.406;2023-08-08T01:36:02;101515.13;;;20.26;69.43
79540;BME280;68991;52.122;5.406;2023-08-08T01:38:41;101513.38;;;20.25;69.26
79540;BME280;68991;52.122;5.406;2023-08-08T01:41:09;101512.50;;;20.24;69.29
79540;BME280;68991;52.122;5.406;2023-08-08T01:43:40;101514.34;;;20.24;69.27
79540;BME280;68991;52.122;5.406;2023-08-08T01:46:07;101506.16;;;20.24;69.30
79540;BME280;68991;52.122;5.406;2023-08-08T01:48:33;101507.13;;;20.23;69.44
79540;BME280;68991;52.122;5.406;2023-08-08T01:51:00;101508.00;;;20.23;69.20
79540;BME280;68991;52.122;5.406;2023-08-08T01:53:27;101503.56;;;20.22;69.17
79540;BME280;68991;52.122;5.406;2023-08-08T01:55:53;101496.22;;;20.23;69.19
79540;BME280;68991;52.122;5.406;2023-08-08T01:58:20;101496.34;;;20.21;69.14
79540;BME280;68991;52.122;5.406;2023-08-08T02:00:46;101499.09;;;20.21;69.38
79540;BME280;68991;52.122;5.406;2023-08-08T02:03:13;101494.59;;;20.20;69.23
79540;BME280;68991;52.122;5.406;2023-08-08T02:05:40;101499.19;;;20.20;69.36
79540;BME280;68991;52.122;5.406;2023-08-08T02:08:06;101493.72;;;20.20;69.32
79540;BME280;68991;52.122;5.406;2023-08-08T02:10:33;101489.28;;;20.19;69.10
79540;BME280;68991;52.122;5.406;2023-08-08T02:12:59;101492.03;;;20.19;69.19
79540;BME280;68991;52.122;5.406;2023-08-08T02:15:26;101484.81;;;20.18;69.24
79540;BME280;68991;52.122;5.406;2023-08-08T02:17:52;101481.22;;;20.17;69.08
79540;BME280;68991;52.122;5.406;2023-08-08T02:20:19;101482.19;;;20.16;69.42
79540;BME280;68991;52.122;5.406;2023-08-08T02:22:45;101477.59;;;20.17;69.20
79540;BME280;68991;52.122;5.406;2023-08-08T02:25:12;101481.31;;;20.16;69.17
79540;BME280;68991;52.122;5.406;2023-08-08T02:27:38;101474.13;;;20.15;69.09
79540;BME280;68991;52.122;5.406;2023-08-08T02:30:05;101478.72;;;20.14;69.34
79540;BME280;68991;52.122;5.406;2023-08-08T02:32:32;101476.00;;;20.14;69.46
79540;BME280;68991;52.122;5.406;2023-08-08T02:34:58;101478.72;;;20.14;69.12
79540;BME280;68991;52.122;5.406;2023-08-08T02:37:25;101479.59;;;20.15;69.10
79540;BME280;68991;52.122;5.406;2023-08-08T02:39:52;101475.13;;;20.14;69.25
79540;BME280;68991;52.122;5.406;2023-08-08T02:42:18;101474.38;;;20.12;69.34
79540;BME280;68991;52.122;5.406;2023-08-08T02:44:45;101473.38;;;20.13;69.46
79540;BME280;68991;52.122;5.406;2023-08-08T02:47:11;101475.22;;;20.12;69.36
79540;BME280;68991;52.122;5.406;2023-08-08T02:49:38;101468.06;;;20.11;69.60
79540;BME280;68991;52.122;5.406;2023-08-08T02:52:04;101473.50;;;20.11;69.29
79540;BME280;68991;52.122;5.406;2023-08-08T02:54:31;101478.09;;;20.11;69.46
79540;BME280;68991;52.122;5.406;2023-08-08T02:56:57;101483.56;;;20.11;69.18
79540;BME280;68991;52.122;5.406;2023-08-08T02:59:24;101470.88;;;20.10;69.54
79540;BME280;68991;52.122;5.406;2023-08-08T03:01:50;101465.44;;;20.10;69.42
79540;BME280;68991;52.122;5.406;2023-08-08T03:04:17;101464.56;;;20.09;69.56
79540;BME280;68991;52.122;5.406;2023-08-08T03:06:43;101460.94;;;20.09;69.43
79540;BME280;68991;52.122;5.406;2023-08-08T03:09:10;101461.97;;;20.08;69.28
79540;BME280;68991;52.122;5.406;2023-08-08T03:11:36;101467.44;;;20.08;69.16
79540;BME280;68991;52.122;5.406;2023-08-08T03:14:03;101461.09;;;20.07;69.47
79540;BME280;68991;52.122;5.406;2023-08-08T03:16:30;101460.22;;;20.07;69.45
79540;BME280;68991;52.122;5.406;2023-08-08T03:18:56;101461.19;;;20.06;69.39
79540;BME280;68991;52.122;5.406;2023-08-08T03:21:23;101455.75;;;20.06;69.37
79540;BME280;68991;52.122;5.406;2023-08-08T03:23:49;101463.06;;;20.05;69.43
79540;BME280;68991;52.122;5.406;2023-08-08T03:26:15;101462.22;;;20.05;69.25
79540;BME280;68991;52.122;5.406;2023-08-08T03:28:42;101462.22;;;20.05;69.29
79540;BME280;68991;52.122;5.406;2023-08-08T03:31:09;101463.19;;;20.04;69.28
79540;BME280;68991;52.122;5.406;2023-08-08T03:33:35;101460.47;;;20.04;69.35
79540;BME280;68991;52.122;5.406;2023-08-08T03:36:02;101460.47;;;20.04;69.10
79540;BME280;68991;52.122;5.406;2023-08-08T03:38:28;101454.13;;;20.03;69.32
79540;BME280;68991;52.122;5.406;2023-08-08T03:40:55;101453.25;;;20.03;69.42
79540;BME280;68991;52.122;5.406;2023-08-08T03:43:21;101453.25;;;20.03;69.21
79540;BME280;68991;52.122;5.406;2023-08-08T03:45:48;101448.78;;;20.02;69.36
79540;BME280;68991;52.122;5.406;2023-08-08T03:48:15;101446.06;;;20.02;69.45
79540;BME280;68991;52.122;5.406;2023-08-08T03:50:41;101445.31;;;20.00;69.46
79540;BME280;68991;52.122;5.406;2023-08-08T03:53:08;101446.06;;;20.02;69.50
79540;BME280;68991;52.122;5.406;2023-08-08T03:55:34;101445.94;;;20.03;69.32
79540;BME280;68991;52.122;5.406;2023-08-08T03:58:01;101446.81;;;20.04;69.32
79540;BME280;68991;52.122;5.406;2023-08-08T04:00:27;101448.44;;;20.06;69.53
79540;BME280;68991;52.122;5.406;2023-08-08T04:02:54;101443.84;;;20.07;69.26
79540;BME280;68991;52.122;5.406;2023-08-08T04:05:21;101441.00;;;20.08;69.63
79540;BME280;68991;52.122;5.406;2023-08-08T04:07:47;101444.47;;;20.10;69.40
79540;BME280;68991;52.122;5.406;2023-08-08T04:10:14;101430.81;;;20.10;69.65
79540;BME280;68991;52.122;5.406;2023-08-08T04:12:40;101438.91;;;20.12;69.83
79540;BME280;68991;52.122;5.406;2023-08-08T04:15:07;101437.00;;;20.12;69.79
79540;BME280;68991;52.122;5.406;2023-08-08T04:17:34;101434.28;;;20.12;69.96
79540;BME280;68991;52.122;5.406;2023-08-08T04:20:00;101436.16;;;20.12;69.66
79540;BME280;68991;52.122;5.406;2023-08-08T04:22:27;101426.09;;;20.12;69.79
79540;BME280;68991;52.122;5.406;2023-08-08T04:24:53;101429.84;;;20.11;69.48
79540;BME280;68991;52.122;5.406;2023-08-08T04:27:20;101434.41;;;20.11;69.68
79540;BME280;68991;52.122;5.406;2023-08-08T04:29:47;101426.22;;;20.11;69.54
79540;BME280;68991;52.122;5.406;2023-08-08T04:32:13;101434.41;;;20.11;69.65
79540;BME280;68991;52.122;5.406;2023-08-08T04:34:40;101441.63;;;20.12;69.81
79540;BME280;68991;52.122;5.406;2023-08-08T04:37:06;101443.47;;;20.11;69.78
79540;BME280;68991;52.122;5.406;2023-08-08T04:39:32;101437.00;;;20.12;69.63
79540;BME280;68991;52.122;5.406;2023-08-08T04:41:59;101446.22;;;20.11;69.83
79540;BME280;68991;52.122;5.406;2023-08-08T04:44:26;101437.16;;;20.11;69.93
79540;BME280;68991;52.122;5.406;2023-08-08T04:46:52;101433.44;;;20.12;69.53
79540;BME280;68991;52.122;5.406;2023-08-08T04:49:19;101435.03;;;20.14;69.94
79540;BME280;68991;52.122;5.406;2023-08-08T04:51:45;101430.47;;;20.15;70.04
79540;BME280;68991;52.122;5.406;2023-08-08T04:54:12;101426.72;;;20.16;69.98
79540;BME280;68991;52.122;5.406;2023-08-08T04:56:38;101427.59;;;20.16;69.95
79540;BME280;68991;52.122;5.406;2023-08-08T04:59:05;101434.78;;;20.17;69.81
79540;BME280;68991;52.122;5.406;2023-08-08T05:01:31;101423.88;;;20.17;69.85
79540;BME280;68991;52.122;5.406;2023-08-08T05:03:57;101418.41;;;20.17;69.57
79540;BME280;68991;52.122;5.406;2023-08-08T05:06:24;101423.75;;;20.19;69.88
79540;BME280;68991;52.122;5.406;2023-08-08T05:08:51;101421.03;;;20.19;70.02
79540;BME280;68991;52.122;5.406;2023-08-08T05:11:18;101419.28;;;20.18;69.78
79540;BME280;68991;52.122;5.406;2023-08-08T05:13:44;101421.03;;;20.19;70.02
79540;BME280;68991;52.122;5.406;2023-08-08T05:16:11;101430.94;;;20.20;69.80
79540;BME280;68991;52.122;5.406;2023-08-08T05:18:37;101422.63;;;20.21;69.54
79540;BME280;68991;52.122;5.406;2023-08-08T05:21:04;101431.69;;;20.22;69.67
79540;BME280;68991;52.122;5.406;2023-08-08T05:23:30;101431.69;;;20.22;69.52
79540;BME280;68991;52.122;5.406;2023-08-08T05:25:57;101430.81;;;20.21;69.71
79540;BME280;68991;52.122;5.406;2023-08-08T05:28:23;101440.88;;;20.21;69.63
79540;BME280;68991;52.122;5.406;2023-08-08T05:30:50;101440.88;;;20.21;69.32
79540;BME280;68991;52.122;5.406;2023-08-08T05:33:16;101437.28;;;20.20;69.31
79540;BME280;68991;52.122;5.406;2023-08-08T05:35:43;101432.69;;;20.21;69.60
79540;BME280;68991;52.122;5.406;2023-08-08T05:38:10;101438.16;;;20.21;69.39
79540;BME280;68991;52.122;5.406;2023-08-08T05:40:36;101431.69;;;20.22;69.29
79540;BME280;68991;52.122;5.406;2023-08-08T05:43:03;101441.75;;;20.21;69.02
79540;BME280;68991;52.122;5.406;2023-08-08T05:45:30;101441.75;;;20.21;69.17
79540;BME280;68991;52.122;5.406;2023-08-08T05:47:56;101439.91;;;20.22;69.22
79540;BME280;68991;52.122;5.406;2023-08-08T05:50:23;101438.03;;;20.22;69.37
79540;BME280;68991;52.122;5.406;2023-08-08T05:52:49;101446.22;;;20.22;69.08
79540;BME280;68991;52.122;5.406;2023-08-08T05:55:16;101443.50;;;20.22;68.89
79540;BME280;68991;52.122;5.406;2023-08-08T05:57:43;101442.47;;;20.23;69.02
79540;BME280;68991;52.122;5.406;2023-08-08T06:00:09;101449.34;;;20.29;69.01
79540;BME280;68991;52.122;5.406;2023-08-08T06:02:38;101447.34;;;20.31;68.55
79540;BME280;68991;52.122;5.406;2023-08-08T06:05:05;101442.78;;;20.31;68.45
79540;BME280;68991;52.122;5.406;2023-08-08T06:07:31;101450.97;;;20.31;68.45
79540;BME280;68991;52.122;5.406;2023-08-08T06:09:58;101446.38;;;20.32;68.36
79540;BME280;68991;52.122;5.406;2023-08-08T06:12:24;101442.78;;;20.31;68.29
79540;BME280;68991;52.122;5.406;2023-08-08T06:14:51;101452.81;;;20.31;68.13
79540;BME280;68991;52.122;5.406;2023-08-08T06:17:17;101452.81;;;20.31;68.15
79540;BME280;68991;52.122;5.406;2023-08-08T06:19:44;101462.75;;;20.32;68.18
79540;BME280;68991;52.122;5.406;2023-08-08T06:22:11;101456.44;;;20.31;68.14
79540;BME280;68991;52.122;5.406;2023-08-08T06:24:38;101463.75;;;20.31;68.39
79540;BME280;68991;52.122;5.406;2023-08-08T06:27:05;101467.47;;;20.30;68.14
79540;BME280;68991;52.122;5.406;2023-08-08T06:29:32;101462.88;;;20.30;68.34
79540;BME280;68991;52.122;5.406;2023-08-08T06:31:58;101463.75;;;20.31;67.89
79540;BME280;68991;52.122;5.406;2023-08-08T06:34:25;101467.34;;;20.31;68.13
79540;BME280;68991;52.122;5.406;2023-08-08T06:36:52;101461.88;;;20.31;68.12
79540;BME280;68991;52.122;5.406;2023-08-08T06:39:19;101463.75;;;20.31;67.80
79540;BME280;68991;52.122;5.406;2023-08-08T06:41:47;101467.34;;;20.31;67.80
79540;BME280;68991;52.122;5.406;2023-08-08T06:44:14;101470.97;;;20.32;67.97
79540;BME280;68991;52.122;5.406;2023-08-08T06:46:40;101468.22;;;20.32;67.96
79540;BME280;68991;52.122;5.406;2023-08-08T06:49:07;101469.97;;;20.33;67.86
79540;BME280;68991;52.122;5.406;2023-08-08T06:51:35;101462.63;;;20.33;67.62
79540;BME280;68991;52.122;5.406;2023-08-08T06:54:01;101467.25;;;20.33;68.04
79540;BME280;68991;52.122;5.406;2023-08-08T06:56:28;101468.09;;;20.33;67.57
79540;BME280;68991;52.122;5.406;2023-08-08T06:58:55;101472.69;;;20.33;67.98
79540;BME280;68991;52.122;5.406;2023-08-08T07:01:21;101468.09;;;20.33;67.89
79540;BME280;68991;52.122;5.406;2023-08-08T07:03:48;101470.69;;;20.35;67.80
79540;BME280;68991;52.122;5.406;2023-08-08T07:06:17;101470.69;;;20.35;67.80
79540;BME280;68991;52.122;5.406;2023-08-08T07:08:44;101470.69;;;20.35;67.78
79540;BME280;68991;52.122;5.406;2023-08-08T07:11:10;101466.13;;;20.35;67.70
79540;BME280;68991;52.122;5.406;2023-08-08T07:13:38;101467.97;;;20.35;67.83
79540;BME280;68991;52.122;5.406;2023-08-08T07:16:05;101473.31;;;20.37;67.75
79540;BME280;68991;52.122;5.406;2023-08-08T07:18:31;101467.00;;;20.36;67.21
79540;BME280;68991;52.122;5.406;2023-08-08T07:20:58;101464.25;;;20.36;67.35
79540;BME280;68991;52.122;5.406;2023-08-08T07:23:25;101453.19;;;20.38;67.38
79540;BME280;68991;52.122;5.406;2023-08-08T07:25:51;101469.56;;;20.38;67.26
79540;BME280;68991;52.122;5.406;2023-08-08T07:28:18;101453.19;;;20.38;67.17
79540;BME280;68991;52.122;5.406;2023-08-08T07:30:44;101450.59;;;20.36;65.51
79540;BME280;68991;52.122;5.406;2023-08-08T07:33:11;101453.34;;;20.36;64.67
79540;BME280;68991;52.122;5.406;2023-08-08T07:35:37;101450.59;;;20.36;65.18
79540;BME280;68991;52.122;5.406;2023-08-08T07:38:04;101443.28;;;20.37;64.86
79540;BME280;68991;52.122;5.406;2023-08-08T07:40:30;101447.63;;;20.39;65.02
79540;BME280;68991;52.122;5.406;2023-08-08T07:42:57;101447.47;;;20.41;65.22
79540;BME280;68991;52.122;5.406;2023-08-08T07:45:23;101447.38;;;20.42;65.53
79540;BME280;68991;52.122;5.406;2023-08-08T07:47:50;101442.63;;;20.44;65.88
79540;BME280;68991;52.122;5.406;2023-08-08T07:50:16;101436.06;;;20.47;65.54
79540;BME280;68991;52.122;5.406;2023-08-08T07:52:43;101434.31;;;20.46;64.99
79540;BME280;68991;52.122;5.406;2023-08-08T07:55:09;101432.31;;;20.48;65.55
79540;BME280;68991;52.122;5.406;2023-08-08T07:57:36;101436.69;;;20.50;66.09
79540;BME280;68991;52.122;5.406;2023-08-08T08:00:04;101441.91;;;20.53;66.10
79540;BME280;68991;52.122;5.406;2023-08-08T08:02:35;101440.91;;;20.54;66.31
79540;BME280;68991;52.122;5.406;2023-08-08T08:05:02;101446.22;;;20.56;66.17
79540;BME280;68991;52.122;5.406;2023-08-08T08:07:32;101443.38;;;20.57;66.08
79540;BME280;68991;52.122;5.406;2023-08-08T08:09:58;101442.38;;;20.58;66.31
79540;BME280;68991;52.122;5.406;2023-08-08T08:12:25;101441.38;;;20.59;66.49
79540;BME280;68991;52.122;5.406;2023-08-08T08:14:52;101441.13;;;20.62;66.16
79540;BME280;68991;52.122;5.406;2023-08-08T08:17:18;101437.41;;;20.63;66.31
79540;BME280;68991;52.122;5.406;2023-08-08T08:19:45;101442.63;;;20.66;66.20
79540;BME280;68991;52.122;5.406;2023-08-08T08:22:11;101439.88;;;20.66;66.17
79540;BME280;68991;52.122;5.406;2023-08-08T08:24:38;101435.28;;;20.67;65.91
79540;BME280;68991;52.122;5.406;2023-08-08T08:27:04;101436.91;;;20.69;66.06
79540;BME280;68991;52.122;5.406;2023-08-08T08:29:31;101435.91;;;20.70;65.93
79540;BME280;68991;52.122;5.406;2023-08-08T08:31:59;101436.78;;;20.71;65.89
79540;BME280;68991;52.122;5.406;2023-08-08T08:34:26;101442.97;;;20.73;66.08
79540;BME280;68991;52.122;5.406;2023-08-08T08:36:52;101437.41;;;20.74;65.75
79540;BME280;68991;52.122;5.406;2023-08-08T08:39:19;101439.88;;;20.77;66.00
79540;BME280;68991;52.122;5.406;2023-08-08T08:41:49;101431.56;;;20.79;65.50
79540;BME280;68991;52.122;5.406;2023-08-08T08:44:19;101450.69;;;20.79;65.39
79540;BME280;68991;52.122;5.406;2023-08-08T08:46:48;101441.34;;;20.81;65.88
79540;BME280;68991;52.122;5.406;2023-08-08T08:49:17;101448.56;;;20.82;65.86
79540;BME280;68991;52.122;5.406;2023-08-08T08:51:44;101442.84;;;20.85;65.74
79540;BME280;68991;52.122;5.406;2023-08-08T08:54:11;101450.06;;;20.87;65.43
79540;BME280;68991;52.122;5.406;2023-08-08T08:56:37;101442.69;;;20.87;65.84
79540;BME280;68991;52.122;5.406;2023-08-08T08:59:04;101452.53;;;20.90;65.25
79540;BME280;68991;52.122;5.406;2023-08-08T09:01:31;101451.50;;;20.91;65.13
79540;BME280;68991;52.122;5.406;2023-08-08T09:03:58;101450.53;;;20.92;65.37
79540;BME280;68991;52.122;5.406;2023-08-08T09:06:26;101455.88;;;20.93;65.26
79540;BME280;68991;52.122;5.406;2023-08-08T09:08:54;101455.00;;;20.93;65.29
79540;BME280;68991;52.122;5.406;2023-08-08T09:11:32;101452.13;;;20.94;65.21
79540;BME280;68991;52.122;5.406;2023-08-08T09:13:59;101452.00;;;20.96;65.21
79540;BME280;68991;52.122;5.406;2023-08-08T09:16:26;101456.59;;;20.95;65.05
79540;BME280;68991;52.122;5.406;2023-08-08T09:18:53;101452.00;;;20.96;65.09
79540;BME280;68991;52.122;5.406;2023-08-08T09:21:19;101454.63;;;20.97;64.79
79540;BME280;68991;52.122;5.406;2023-08-08T09:23:45;101453.34;;;21.01;65.27
79540;BME280;68991;52.122;5.406;2023-08-08T09:26:13;101455.09;;;21.02;65.04
79540;BME280;68991;52.122;5.406;2023-08-08T09:28:40;101456.69;;;21.05;64.78
79540;BME280;68991;52.122;5.406;2023-08-08T09:31:07;101448.25;;;21.08;64.72
79540;BME280;68991;52.122;5.406;2023-08-08T09:33:33;101442.56;;;21.11;64.57
79540;BME280;68991;52.122;5.406;2023-08-08T09:36:00;101445.28;;;21.11;64.42
79540;BME280;68991;52.122;5.406;2023-08-08T09:38:26;101443.28;;;21.13;64.57
79540;BME280;68991;52.122;5.406;2023-08-08T09:40:53;101455.81;;;21.15;64.63
79540;BME280;68991;52.122;5.406;2023-08-08T09:43:19;101450.84;;;21.20;63.99
79540;BME280;68991;52.122;5.406;2023-08-08T09:45:47;101445.97;;;21.24;64.29
79540;BME280;68991;52.122;5.406;2023-08-08T09:48:14;101443.25;;;21.24;64.26
79540;BME280;68991;52.122;5.406;2023-08-08T09:50:42;101448.84;;;21.22;64.06
79540;BME280;68991;52.122;5.406;2023-08-08T09:53:09;101453.47;;;21.22;64.17
79540;BME280;68991;52.122;5.406;2023-08-08T09:55:37;101465.84;;;21.26;63.58
79540;BME280;68991;52.122;5.406;2023-08-08T09:58:05;101460.38;;;21.26;63.62
79540;BME280;68991;52.122;5.406;2023-08-08T10:00:31;101464.13;;;21.25;64.17
79540;BME280;68991;52.122;5.406;2023-08-08T10:03:00;101470.34;;;21.27;63.66
79540;BME280;68991;52.122;5.406;2023-08-08T10:05:27;101471.81;;;21.31;64.12
79540;BME280;68991;52.122;5.406;2023-08-08T10:07:54;101458.84;;;21.33;63.91
79540;BME280;68991;52.122;5.406;2023-08-08T10:10:21;101461.47;;;21.34;63.84
79540;BME280;68991;52.122;5.406;2023-08-08T10:12:48;101459.63;;;21.35;63.68
79540;BME280;68991;52.122;5.406;2023-08-08T10:15:14;101465.69;;;21.39;63.49
79540;BME280;68991;52.122;5.406;2023-08-08T10:17:41;101458.09;;;21.42;61.84
79540;BME280;68991;52.122;5.406;2023-08-08T10:20:10;101460.69;;;21.44;61.86
79540;BME280;68991;52.122;5.406;2023-08-08T10:22:45;101476.25;;;21.43;62.46
79540;BME280;68991;52.122;5.406;2023-08-08T10:25:23;101463.31;;;21.45;62.98
79540;BME280;68991;52.122;5.406;2023-08-08T10:27:49;101469.25;;;21.50;62.83
79540;BME280;68991;52.122;5.406;2023-08-08T10:30:16;101464.50;;;21.52;63.16
79540;BME280;68991;52.122;5.406;2023-08-08T10:32:44;101476.19;;;21.54;62.75
79540;BME280;68991;52.122;5.406;2023-08-08T10:35:13;101466.25;;;21.53;63.19
79540;BME280;68991;52.122;5.406;2023-08-08T10:37:40;101466.38;;;21.52;61.60
79540;BME280;68991;52.122;5.406;2023-08-08T10:40:07;101468.25;;;21.51;61.95
79540;BME280;68991;52.122;5.406;2023-08-08T10:42:42;101471.25;;;21.48;62.38
79540;BME280;68991;52.122;5.406;2023-08-08T10:45:10;101477.69;;;21.47;62.32
79540;BME280;68991;52.122;5.406;2023-08-08T10:47:39;101482.34;;;21.47;62.76
79540;BME280;68991;52.122;5.406;2023-08-08T10:57:56;101473.53;;;21.64;62.81
79540;BME280;68991;52.122;5.406;2023-08-08T11:00:32;101469.78;;;21.65;62.81
79540;BME280;68991;52.122;5.406;2023-08-08T11:02:59;101470.66;;;21.65;62.28
79540;BME280;68991;52.122;5.406;2023-08-08T11:05:30;101473.41;;;21.65;62.56
79540;BME280;68991;52.122;5.406;2023-08-08T11:07:57;101470.66;;;21.65;62.73
79540;BME280;68991;52.122;5.406;2023-08-08T11:10:25;101471.69;;;21.64;62.79
79540;BME280;68991;52.122;5.406;2023-08-08T11:13:01;101468.19;;;21.62;62.63
79540;BME280;68991;52.122;5.406;2023-08-08T11:15:31;101483.63;;;21.63;62.34
79540;BME280;68991;52.122;5.406;2023-08-08T11:17:59;101481.88;;;21.62;62.24
79540;BME280;68991;52.122;5.406;2023-08-08T11:20:33;101478.75;;;21.67;62.61
79540;BME280;68991;52.122;5.406;2023-08-08T11:23:00;101475.63;;;21.71;62.40
79540;BME280;68991;52.122;5.406;2023-08-08T11:25:29;101470.16;;;21.71;62.20
79540;BME280;68991;52.122;5.406;2023-08-08T11:27:57;101471.00;;;21.72;62.42
79540;BME280;68991;52.122;5.406;2023-08-08T11:30:29;101464.69;;;21.71;62.18
79540;BME280;68991;52.122;5.406;2023-08-08T11:32:56;101470.16;;;21.71;62.09
79540;BME280;68991;52.122;5.406;2023-08-08T11:35:26;101469.13;;;21.72;62.45
79540;BME280;68991;52.122;5.406;2023-08-08T11:37:56;101459.19;;;21.71;62.26
79540;BME280;68991;52.122;5.406;2023-08-08T11:40:27;101462.78;;;21.72;62.51
79540;BME280;68991;52.122;5.406;2023-08-08T11:42:55;101459.81;;;21.75;62.39
79540;BME280;68991;52.122;5.406;2023-08-08T11:45:23;101460.41;;;21.78;62.00
79540;BME280;68991;52.122;5.406;2023-08-08T11:47:52;101458.66;;;21.77;62.02
79540;BME280;68991;52.122;5.406;2023-08-08T11:50:20;101450.19;;;21.80;61.65
79540;BME280;68991;52.122;5.406;2023-08-08T11:52:52;101453.25;;;21.87;62.08
79540;BME280;68991;52.122;5.406;2023-08-08T11:55:20;101453.88;;;21.91;61.83
79540;BME280;68991;52.122;5.406;2023-08-08T11:57:50;101451.88;;;21.93;61.97
79540;BME280;68991;52.122;5.406;2023-08-08T12:00:17;101442.38;;;21.97;61.64
79540;BME280;68991;52.122;5.406;2023-08-08T12:02:44;101450.19;;;22.01;61.45
79540;BME280;68991;52.122;5.406;2023-08-08T12:05:14;101445.72;;;22.00;61.89
79540;BME280;68991;52.122;5.406;2023-08-08T12:07:48;101460.16;;;22.02;61.80
79540;BME280;68991;52.122;5.406;2023-08-08T12:10:19;101452.66;;;22.04;61.70
79540;BME280;68991;52.122;5.406;2023-08-08T12:12:53;101451.53;;;22.07;61.75
79540;BME280;68991;52.122;5.406;2023-08-08T12:15:20;101456.00;;;22.08;61.45
79540;BME280;68991;52.122;5.406;2023-08-08T12:17:47;101454.13;;;22.08;61.54
79540;BME280;68991;52.122;5.406;2023-08-08T12:20:14;101436.81;;;22.08;61.62
79540;BME280;68991;52.122;5.406;2023-08-08T12:22:41;101445.50;;;22.13;61.31
79540;BME280;68991;52.122;5.406;2023-08-08T12:25:08;101450.44;;;22.19;61.03
79540;BME280;68991;52.122;5.406;2023-08-08T12:27:34;101441.66;;;22.25;61.13
79540;BME280;68991;52.122;5.406;2023-08-08T12:30:01;101446.53;;;22.21;61.26
79540;BME280;68991;52.122;5.406;2023-08-08T12:32:27;101454.31;;;22.16;61.37
79540;BME280;68991;52.122;5.406;2023-08-08T12:34:55;101452.84;;;22.12;60.87
79540;BME280;68991;52.122;5.406;2023-08-08T12:37:23;101448.25;;;22.13;61.33
79540;BME280;68991;52.122;5.406;2023-08-08T12:39:50;101441.31;;;22.09;61.08
79540;BME280;68991;52.122;5.406;2023-08-08T12:42:17;101447.06;;;22.06;61.42
79540;BME280;68991;52.122;5.406;2023-08-08T12:44:44;101455.41;;;22.04;61.72
79540;BME280;68991;52.122;5.406;2023-08-08T12:47:11;101449.31;;;22.01;61.37
79540;BME280;68991;52.122;5.406;2023-08-08T12:49:40;101457.69;;;21.99;61.79
79540;BME280;68991;52.122;5.406;2023-08-08T12:52:07;101451.25;;;22.10;61.16
79540;BME280;68991;52.122;5.406;2023-08-08T12:54:33;101444.84;;;22.20;61.17
79540;BME280;68991;52.122;5.406;2023-08-08T12:57:00;101444.00;;;22.29;60.84
79540;BME280;68991;52.122;5.406;2023-08-08T12:59:28;101450.22;;;22.31;60.56